EGYM

RAF Marham Airport

Marham, United Kingdom
METAR EGYM 212350Z 06005KT 4000 BR FEW010 SCT045 00/M00 Q1026 GRN
Observed Flight Rules
Feb-21 @ 23:50 UTC (5 hours ago) Instrument Flight Rules
Wind Visibility Clouds Conditions
60° at 5 knots 4,007 meters
  • Few at 1,000' AGL
  • Scattered at 4,500' AGL
  • Mist
Temperatures Readings
Current 0°C / 32°F
Dewpoint 0°C / 32°F
Humidity 100%
Altimeter 30.3" Hg
Pressure 1026 hPa
Elevation 23
METAR EGYM 212350Z 06005KT 4000 BR FEW010 SCT045 00/M00 Q1026 GRN
Observed Flight Rules
Feb-21 @ 23:50 UTC
(5 hours ago)
IFR
Wind Visibility
60° at 5 knots 4,007 meters
Clouds
  • Few at 1,000' AGL
  • Scattered at 4,500' AGL
Conditions
  • Mist
Temperature Dewpoint
0°C / 32°F 0°C / 32°F
Humidity Altimeter Pressure
100% 30.3" Hg 1026 hPa